createdAt,value
2023-03-17T00:00:55.826Z,1014.18
2023-03-17T00:01:55.876Z,1014.19
2023-03-17T00:02:55.806Z,1014.18
2023-03-17T00:03:55.832Z,1014.16
2023-03-17T00:04:55.803Z,1014.16
2023-03-17T00:05:55.833Z,1014.15
2023-03-17T00:06:55.787Z,1014.22
2023-03-17T00:07:55.796Z,1014.16
2023-03-17T00:08:55.787Z,1014.13
2023-03-17T00:09:55.791Z,1014.12
2023-03-17T00:10:55.772Z,1014.14
2023-03-17T00:11:55.774Z,1014.14
2023-03-17T00:12:55.764Z,1014.12
2023-03-17T00:13:55.765Z,1014.12
2023-03-17T00:14:55.751Z,1014.06
2023-03-17T00:15:55.822Z,1014.00
2023-03-17T00:16:55.742Z,1014.06
2023-03-17T00:17:55.747Z,1014.03
2023-03-17T00:18:55.733Z,1014.06
2023-03-17T00:19:55.734Z,1014.00
2023-03-17T00:20:55.726Z,1013.98
2023-03-17T00:21:55.757Z,1013.91
2023-03-17T00:22:55.719Z,1013.87
2023-03-17T00:23:55.718Z,1013.92
2023-03-17T00:24:55.711Z,1013.89
2023-03-17T00:25:55.711Z,1013.92
2023-03-17T00:26:55.722Z,1013.95
2023-03-17T00:27:55.702Z,1013.96
2023-03-17T00:28:55.700Z,1013.90
2023-03-17T00:29:55.697Z,1013.96
2023-03-17T00:30:55.750Z,1013.97
2023-03-17T00:31:55.687Z,1014.01
2023-03-17T00:32:55.766Z,1013.99
2023-03-17T00:33:55.682Z,1013.95
2023-03-17T00:34:55.669Z,1013.95
2023-03-17T00:35:55.729Z,1013.94
2023-03-17T00:36:55.661Z,1013.91
2023-03-17T00:37:55.794Z,1013.87
2023-03-17T00:38:55.652Z,1013.94
2023-03-17T00:39:55.657Z,1013.90
2023-03-17T00:40:55.639Z,1013.90
2023-03-17T00:41:55.642Z,1013.81
2023-03-17T00:42:55.635Z,1013.76
2023-03-17T00:43:55.631Z,1013.78
2023-03-17T00:44:55.624Z,1013.75
2023-03-17T00:45:55.624Z,1013.73
2023-03-17T00:46:55.716Z,1013.69
2023-03-17T00:47:55.613Z,1013.66
2023-03-17T00:48:55.622Z,1013.63
2023-03-17T00:49:55.601Z,1013.62
2023-03-17T00:50:55.595Z,1013.60
2023-03-17T00:51:55.596Z,1013.56
2023-03-17T00:52:55.589Z,1013.56
2023-03-17T00:53:55.611Z,1013.55
2023-03-17T00:54:55.581Z,1013.58
2023-03-17T00:55:55.578Z,1013.55
2023-03-17T00:56:55.568Z,1013.58
2023-03-17T00:57:55.567Z,1013.49
2023-03-17T00:58:55.581Z,1013.47
2023-03-17T00:59:55.556Z,1013.44
2023-03-17T01:00:55.588Z,1013.47
2023-03-17T01:01:55.671Z,1013.37
2023-03-17T01:02:55.544Z,1013.36
2023-03-17T01:03:55.539Z,1013.35
2023-03-17T01:05:05.401Z,1013.24
2023-03-17T01:05:55.533Z,1013.22
2023-03-17T01:06:55.547Z,1013.24
2023-03-17T01:07:55.519Z,1013.24
2023-03-17T01:08:55.524Z,1013.24
2023-03-17T01:09:55.546Z,1013.22
2023-03-17T01:10:55.524Z,1013.26
2023-03-17T01:11:55.547Z,1013.26
2023-03-17T01:12:55.545Z,1013.23
2023-03-17T01:13:55.494Z,1013.22
2023-03-17T01:14:55.494Z,1013.19
2023-03-17T01:15:55.593Z,1013.23
2023-03-17T01:16:55.488Z,1013.26
2023-03-17T01:17:55.470Z,1013.26
2023-03-17T01:18:55.512Z,1013.31
2023-03-17T01:19:55.465Z,1013.27
2023-03-17T01:20:55.476Z,1013.29
2023-03-17T01:21:55.458Z,1013.29
2023-03-17T01:22:55.454Z,1013.30
2023-03-17T01:23:55.457Z,1013.23
2023-03-17T01:24:55.445Z,1013.22
2023-03-17T01:25:55.464Z,1013.21
2023-03-17T01:26:55.439Z,1013.18
2023-03-17T01:27:55.429Z,1013.19
2023-03-17T01:28:55.431Z,1013.13
2023-03-17T01:29:55.424Z,1013.20
2023-03-17T01:30:55.478Z,1013.22
2023-03-17T01:31:55.530Z,1013.24
2023-03-17T01:32:55.439Z,1013.18
2023-03-17T01:33:55.402Z,1013.20
2023-03-17T01:34:55.404Z,1013.08
2023-03-17T01:35:55.453Z,1013.08
2023-03-17T01:36:55.402Z,1013.05
2023-03-17T01:37:55.388Z,1013.03
2023-03-17T01:38:55.388Z,1013.04
2023-03-17T01:39:55.378Z,1012.94
2023-03-17T01:40:55.376Z,1013.03
2023-03-17T01:41:55.393Z,1012.98
2023-03-17T01:42:55.367Z,1012.99
2023-03-17T01:43:55.392Z,1012.98
2023-03-17T01:44:55.362Z,1012.96
2023-03-17T01:45:55.436Z,1013.03
2023-03-17T01:46:55.355Z,1013.01
2023-03-17T01:47:55.339Z,1012.99
2023-03-17T01:48:55.348Z,1013.04
2023-03-17T01:49:55.329Z,1012.92
2023-03-17T01:50:55.326Z,1012.94
2023-03-17T01:51:55.327Z,1012.98
2023-03-17T01:52:55.322Z,1012.96
2023-03-17T01:53:55.318Z,1012.91
2023-03-17T01:54:55.312Z,1012.87
2023-03-17T01:55:55.308Z,1012.90
2023-03-17T01:56:55.299Z,1012.87
2023-03-17T01:57:55.319Z,1012.87
2023-03-17T01:58:55.296Z,1012.91
2023-03-17T01:59:55.288Z,1012.87
2023-03-17T02:00:55.302Z,1012.88
2023-03-17T02:01:55.278Z,1012.89
2023-03-17T02:02:55.272Z,1012.87
2023-03-17T02:03:55.351Z,1012.87
2023-03-17T02:04:55.274Z,1012.87
2023-03-17T02:05:55.262Z,1012.83
2023-03-17T02:06:58.364Z,1012.71
2023-03-17T02:07:55.246Z,1012.65
2023-03-17T02:08:55.253Z,1012.70
2023-03-17T02:09:55.239Z,1012.61
2023-03-17T02:10:55.246Z,1012.63
2023-03-17T02:11:55.229Z,1012.59
2023-03-17T02:12:55.232Z,1012.64
2023-03-17T02:13:55.245Z,1012.72
2023-03-17T02:14:55.220Z,1012.64
2023-03-17T02:15:55.218Z,1012.74
2023-03-17T02:16:55.250Z,1012.70
2023-03-17T02:17:55.204Z,1012.74
2023-03-17T02:18:55.202Z,1012.69
2023-03-17T02:19:55.202Z,1012.68
2023-03-17T02:20:55.191Z,1012.68
2023-03-17T02:21:55.200Z,1012.68
2023-03-17T02:22:55.182Z,1012.67
2023-03-17T02:23:55.183Z,1012.60
2023-03-17T02:24:55.168Z,1012.60
2023-03-17T02:25:55.162Z,1012.56
2023-03-17T02:26:55.168Z,1012.50
2023-03-17T02:27:55.154Z,1012.49
2023-03-17T02:28:55.162Z,1012.48
2023-03-17T02:29:55.171Z,1012.48
2023-03-17T02:30:55.173Z,1012.50
2023-03-17T02:31:55.136Z,1012.52
2023-03-17T02:32:55.175Z,1012.48
2023-03-17T02:33:55.130Z,1012.43
2023-03-17T02:34:55.128Z,1012.45
2023-03-17T02:35:55.172Z,1012.43
2023-03-17T02:36:55.163Z,1012.44
2023-03-17T02:37:55.113Z,1012.48
2023-03-17T02:38:55.113Z,1012.53
2023-03-17T02:39:55.107Z,1012.49
2023-03-17T02:40:55.101Z,1012.51
2023-03-17T02:41:55.095Z,1012.52
2023-03-17T02:42:55.088Z,1012.46
2023-03-17T02:43:55.087Z,1012.48
2023-03-17T02:44:55.087Z,1012.50
2023-03-17T02:45:55.151Z,1012.46
2023-03-17T02:46:55.076Z,1012.45
2023-03-17T02:47:55.069Z,1012.44
2023-03-17T02:48:55.070Z,1012.48
2023-03-17T02:49:55.059Z,1012.45
2023-03-17T02:50:55.058Z,1012.51
2023-03-17T02:51:55.048Z,1012.49
2023-03-17T02:52:55.055Z,1012.42
2023-03-17T02:53:55.042Z,1012.42
2023-03-17T02:54:55.037Z,1012.40
2023-03-17T02:55:55.032Z,1012.33
2023-03-17T02:56:55.035Z,1012.30
2023-03-17T02:57:55.037Z,1012.30
2023-03-17T02:58:55.021Z,1012.33
2023-03-17T02:59:55.014Z,1012.35
2023-03-17T03:00:55.013Z,1012.37
2023-03-17T03:01:55.029Z,1012.39
2023-03-17T03:02:55.049Z,1012.38
2023-03-17T03:03:54.996Z,1012.43
2023-03-17T03:04:54.992Z,1012.38
2023-03-17T03:05:54.986Z,1012.46
2023-03-17T03:06:54.989Z,1012.39
2023-03-17T03:07:54.974Z,1012.40
2023-03-17T03:08:54.993Z,1012.40
2023-03-17T03:09:54.970Z,1012.36
2023-03-17T03:10:54.970Z,1012.35
2023-03-17T03:11:54.960Z,1012.43
2023-03-17T03:12:54.955Z,1012.33
2023-03-17T03:13:54.947Z,1012.32
2023-03-17T03:14:54.951Z,1012.34
2023-03-17T03:15:54.998Z,1012.30
2023-03-17T03:16:54.940Z,1012.32
2023-03-17T03:17:54.953Z,1012.31
2023-03-17T03:18:54.930Z,1012.35
2023-03-17T03:19:54.936Z,1012.31
2023-03-17T03:20:54.918Z,1012.32
2023-03-17T03:21:54.915Z,1012.33
2023-03-17T03:22:54.910Z,1012.36
2023-03-17T03:23:54.906Z,1012.34
2023-03-17T03:24:54.899Z,1012.36
2023-03-17T03:25:54.892Z,1012.37
2023-03-17T03:26:54.897Z,1012.33
2023-03-17T03:27:54.887Z,1012.42
2023-03-17T03:28:54.887Z,1012.40
2023-03-17T03:29:54.879Z,1012.44
2023-03-17T03:30:54.904Z,1012.44
2023-03-17T03:31:54.869Z,1012.47
2023-03-17T03:32:54.906Z,1012.42
2023-03-17T03:33:54.871Z,1012.45
2023-03-17T03:34:54.851Z,1012.46
2023-03-17T03:35:54.894Z,1012.49
2023-03-17T03:36:54.848Z,1012.49
2023-03-17T03:37:54.836Z,1012.55
2023-03-17T03:38:54.838Z,1012.52
2023-03-17T03:39:54.831Z,1012.59
2023-03-17T03:40:54.836Z,1012.56
2023-03-17T03:41:54.821Z,1012.59
2023-03-17T03:42:54.820Z,1012.55
2023-03-17T03:43:54.809Z,1012.57
2023-03-17T03:44:54.805Z,1012.55
2023-03-17T03:45:54.795Z,1012.53
2023-03-17T03:46:54.798Z,1012.55
2023-03-17T03:47:54.785Z,1012.48
2023-03-17T03:48:54.789Z,1012.45
2023-03-17T03:49:54.800Z,1012.47
2023-03-17T03:50:54.776Z,1012.44
2023-03-17T03:51:54.772Z,1012.39
2023-03-17T03:52:54.772Z,1012.40
2023-03-17T03:53:54.769Z,1012.35
2023-03-17T03:54:54.762Z,1012.38
2023-03-17T03:55:54.758Z,1012.38
2023-03-17T03:56:54.752Z,1012.39
2023-03-17T03:57:54.747Z,1012.36
2023-03-17T03:58:54.749Z,1012.34
2023-03-17T03:59:54.784Z,1012.32
2023-03-17T04:00:54.731Z,1012.38
2023-03-17T04:01:54.724Z,1012.38
2023-03-17T04:02:54.897Z,1012.39
2023-03-17T04:03:54.713Z,1012.37
2023-03-17T04:04:54.744Z,1012.36
2023-03-17T04:05:54.722Z,1012.33
2023-03-17T04:06:54.712Z,1012.35
2023-03-17T04:07:54.702Z,1012.34
2023-03-17T04:08:57.072Z,1012.31
2023-03-17T04:09:54.687Z,1012.39
2023-03-17T04:10:54.694Z,1012.37
2023-03-17T04:11:54.678Z,1012.34
2023-03-17T04:12:54.685Z,1012.35
2023-03-17T04:13:54.677Z,1012.34
2023-03-17T04:14:54.668Z,1012.38
2023-03-17T04:15:54.692Z,1012.33
2023-03-17T04:16:54.662Z,1012.33
2023-03-17T04:17:54.649Z,1012.33
2023-03-17T04:18:54.687Z,1012.34
2023-03-17T04:19:54.638Z,1012.33
2023-03-17T04:20:54.644Z,1012.28
2023-03-17T04:21:54.886Z,1012.29
2023-03-17T04:22:54.634Z,1012.30
2023-03-17T04:23:54.624Z,1012.28
2023-03-17T04:24:54.634Z,1012.29
2023-03-17T04:25:54.615Z,1012.30
2023-03-17T04:26:54.608Z,1012.30
2023-03-17T04:27:54.603Z,1012.29
2023-03-17T04:28:54.599Z,1012.28
2023-03-17T04:29:54.597Z,1012.26
2023-03-17T04:30:54.594Z,1012.24
2023-03-17T04:31:54.645Z,1012.23
2023-03-17T04:32:54.623Z,1012.20
2023-03-17T04:33:54.594Z,1012.21
2023-03-17T04:34:54.574Z,1012.14
2023-03-17T04:35:54.646Z,1012.09
2023-03-17T04:36:54.569Z,1012.09
2023-03-17T04:37:54.582Z,1012.03
2023-03-17T04:38:54.558Z,1012.03
2023-03-17T04:39:54.551Z,1012.03
2023-03-17T04:40:54.546Z,1012.04
2023-03-17T04:41:54.540Z,1011.97
2023-03-17T04:42:54.537Z,1011.95
2023-03-17T04:43:54.529Z,1011.97
2023-03-17T04:44:54.537Z,1011.98
2023-03-17T04:45:54.607Z,1011.95
2023-03-17T04:46:54.522Z,1011.98
2023-03-17T04:47:54.506Z,1012.02
2023-03-17T04:48:54.505Z,1011.95
2023-03-17T04:49:54.504Z,1012.05
2023-03-17T04:50:54.504Z,1012.07
2023-03-17T04:51:54.496Z,1012.09
2023-03-17T04:52:54.502Z,1012.16
2023-03-17T04:53:54.512Z,1012.14
2023-03-17T04:54:54.477Z,1012.09
2023-03-17T04:55:54.472Z,1012.14
2023-03-17T04:56:54.477Z,1012.14
2023-03-17T04:57:54.465Z,1012.15
2023-03-17T04:58:54.461Z,1012.12
2023-03-17T04:59:54.470Z,1012.12
2023-03-17T05:00:54.485Z,1012.11
2023-03-17T05:01:54.472Z,1012.09
2023-03-17T05:02:54.446Z,1012.09
2023-03-17T05:03:54.441Z,1012.15
2023-03-17T05:04:54.437Z,1012.11
2023-03-17T05:05:54.462Z,1012.11
2023-03-17T05:06:54.427Z,1012.13
2023-03-17T05:07:54.419Z,1012.15
2023-03-17T05:08:54.425Z,1012.16
2023-03-17T05:09:54.439Z,1012.17
2023-03-17T05:10:54.409Z,1012.12
2023-03-17T05:11:54.399Z,1012.11
2023-03-17T05:12:54.404Z,1012.14
2023-03-17T05:13:54.392Z,1012.15
2023-03-17T05:14:54.392Z,1012.21
2023-03-17T05:15:54.392Z,1012.14
2023-03-17T05:16:54.456Z,1012.14
2023-03-17T05:17:54.376Z,1012.12
2023-03-17T05:18:54.370Z,1012.17
2023-03-17T05:19:54.369Z,1012.15
2023-03-17T05:20:54.355Z,1012.12
2023-03-17T05:21:54.356Z,1012.08
2023-03-17T05:22:54.344Z,1012.04
2023-03-17T05:23:55.054Z,1011.98
2023-03-17T05:24:54.339Z,1011.90
2023-03-17T05:25:54.366Z,1011.72
2023-03-17T05:26:54.335Z,1011.68
2023-03-17T05:27:54.329Z,1011.68
2023-03-17T05:28:54.320Z,1011.68
2023-03-17T05:29:54.320Z,1011.72
2023-03-17T05:30:54.392Z,1011.74
2023-03-17T05:31:54.309Z,1011.80
2023-03-17T05:32:54.393Z,1011.78
2023-03-17T05:33:54.304Z,1011.76
2023-03-17T05:34:54.289Z,1011.79
2023-03-17T05:35:54.299Z,1011.84
2023-03-17T05:36:54.283Z,1011.83
2023-03-17T05:37:54.276Z,1011.87
2023-03-17T05:38:54.281Z,1011.90
2023-03-17T05:39:54.288Z,1011.90
2023-03-17T05:40:54.263Z,1011.98
2023-03-17T05:41:54.286Z,1011.95
2023-03-17T05:42:54.252Z,1011.91
2023-03-17T05:43:54.253Z,1011.88
2023-03-17T05:44:54.243Z,1011.97
2023-03-17T05:45:54.261Z,1011.93
2023-03-17T05:46:54.231Z,1011.90
2023-03-17T05:47:54.226Z,1011.98
2023-03-17T05:48:54.241Z,1012.00
2023-03-17T05:49:54.222Z,1012.02
2023-03-17T05:50:54.213Z,1012.02
2023-03-17T05:51:54.212Z,1011.99
2023-03-17T05:52:54.200Z,1012.03
2023-03-17T05:53:54.201Z,1012.00
2023-03-17T05:54:54.196Z,1011.97
2023-03-17T05:55:54.193Z,1011.98
2023-03-17T05:56:54.204Z,1011.98
2023-03-17T05:57:54.209Z,1012.04
2023-03-17T05:58:54.192Z,1012.02
2023-03-17T05:59:54.180Z,1012.07
2023-03-17T06:00:54.169Z,1012.12
2023-03-17T06:01:54.176Z,1012.09
2023-03-17T06:02:54.166Z,1012.12
2023-03-17T06:03:54.235Z,1012.11
2023-03-17T06:04:54.150Z,1012.11
2023-03-17T06:05:54.154Z,1012.13
2023-03-17T06:06:54.144Z,1012.12
2023-03-17T06:07:56.394Z,1012.14
2023-03-17T06:08:54.168Z,1012.10
2023-03-17T06:09:54.139Z,1012.12
2023-03-17T06:10:54.127Z,1012.15
2023-03-17T06:11:54.124Z,1012.13
2023-03-17T06:12:54.111Z,1012.11
2023-03-17T06:13:54.137Z,1012.10
2023-03-17T06:14:54.103Z,1012.09
2023-03-17T06:15:54.161Z,1012.07
2023-03-17T06:16:54.098Z,1012.05
2023-03-17T06:17:54.098Z,1012.03
2023-03-17T06:18:54.096Z,1011.99
2023-03-17T06:19:54.094Z,1011.98
2023-03-17T06:20:54.089Z,1011.99
2023-03-17T06:21:54.082Z,1011.94
2023-03-17T06:23:04.011Z,1011.90
2023-03-17T06:23:54.068Z,1011.96
2023-03-17T06:24:56.073Z,1012.00
2023-03-17T06:25:54.062Z,1011.93
2023-03-17T06:26:54.049Z,1011.95
2023-03-17T06:27:54.043Z,1011.87
2023-03-17T06:28:54.036Z,1011.85
2023-03-17T06:29:54.061Z,1011.88
2023-03-17T06:30:54.142Z,1011.95
2023-03-17T06:31:54.035Z,1012.02
2023-03-17T06:32:54.116Z,1012.01
2023-03-17T06:33:54.022Z,1011.98
2023-03-17T06:34:54.023Z,1012.07
2023-03-17T06:35:54.033Z,1012.07
2023-03-17T06:36:54.026Z,1012.08
2023-03-17T06:37:54.017Z,1012.13
2023-03-17T06:38:53.992Z,1012.11
2023-03-17T06:39:54.006Z,1012.15
2023-03-17T06:40:53.981Z,1012.16
2023-03-17T06:41:53.988Z,1012.17
2023-03-17T06:42:53.990Z,1012.16
2023-03-17T06:43:53.976Z,1012.20
2023-03-17T06:44:53.977Z,1012.14
2023-03-17T06:45:53.992Z,1012.14
2023-03-17T06:46:54.144Z,1012.14
2023-03-17T06:47:53.960Z,1012.06
2023-03-17T06:48:53.952Z,1012.05
2023-03-17T06:49:53.949Z,1012.15
2023-03-17T06:50:53.938Z,1012.06
2023-03-17T06:51:53.941Z,1012.15
2023-03-17T06:52:53.936Z,1012.06
2023-03-17T06:53:53.929Z,1012.08
2023-03-17T06:54:53.930Z,1012.03
2023-03-17T06:55:53.934Z,1012.02
2023-03-17T06:56:53.915Z,1011.99
2023-03-17T06:57:53.933Z,1011.95
2023-03-17T06:58:53.928Z,1011.91
2023-03-17T06:59:53.900Z,1011.88
2023-03-17T07:00:53.909Z,1011.89
2023-03-17T07:01:54.142Z,1011.88
2023-03-17T07:02:53.887Z,1011.87
2023-03-17T07:03:53.901Z,1012.00
2023-03-17T07:04:53.921Z,1012.02
2023-03-17T07:05:53.875Z,1012.04
2023-03-17T07:06:53.864Z,1012.09
2023-03-17T07:07:53.871Z,1012.07
2023-03-17T07:08:53.862Z,1012.09
2023-03-17T07:09:53.856Z,1011.99
2023-03-17T07:10:53.852Z,1012.04
2023-03-17T07:11:53.877Z,1012.00
2023-03-17T07:12:53.848Z,1012.04
2023-03-17T07:13:53.843Z,1012.01
2023-03-17T07:14:53.834Z,1011.92
2023-03-17T07:15:55.402Z,1012.00
2023-03-17T07:16:53.838Z,1011.96
2023-03-17T07:17:53.869Z,1012.04
2023-03-17T07:18:53.822Z,1011.98
2023-03-17T07:19:53.812Z,1012.06
2023-03-17T07:20:53.821Z,1012.04
2023-03-17T07:21:53.806Z,1012.03
2023-03-17T07:22:53.800Z,1012.02
2023-03-17T07:23:53.798Z,1011.97
2023-03-17T07:24:53.803Z,1011.92
2023-03-17T07:25:53.796Z,1011.91
2023-03-17T07:26:53.785Z,1011.91
2023-03-17T07:27:53.803Z,1011.86
2023-03-17T07:28:53.807Z,1011.89
2023-03-17T07:29:53.792Z,1011.88
2023-03-17T07:30:53.776Z,1011.87
2023-03-17T07:31:53.786Z,1011.85
2023-03-17T07:32:53.922Z,1011.85
2023-03-17T07:33:55.879Z,1011.87
2023-03-17T07:34:53.765Z,1011.81
2023-03-17T07:35:53.809Z,1011.78
2023-03-17T07:36:53.746Z,1011.92
2023-03-17T07:37:53.775Z,1011.82
2023-03-17T07:38:53.761Z,1011.72
2023-03-17T07:39:53.736Z,1011.62
2023-03-17T07:40:53.730Z,1011.65
2023-03-17T07:41:53.734Z,1011.58
2023-03-17T07:42:53.728Z,1011.81
2023-03-17T07:43:53.769Z,1011.82
2023-03-17T07:44:53.743Z,1011.83
2023-03-17T07:45:53.765Z,1011.83
2023-03-17T07:46:53.729Z,1011.90
2023-03-17T07:47:53.713Z,1011.96
2023-03-17T07:48:53.737Z,1012.00
2023-03-17T07:49:53.736Z,1011.99
2023-03-17T07:50:53.691Z,1011.88
2023-03-17T07:51:53.695Z,1011.95
2023-03-17T07:52:53.744Z,1011.75
2023-03-17T07:53:53.688Z,1011.81
2023-03-17T07:54:53.693Z,1011.79
2023-03-17T07:55:53.691Z,1011.88
2023-03-17T07:56:53.678Z,1011.83
2023-03-17T07:57:53.763Z,1011.77
2023-03-17T07:58:53.662Z,1011.69
2023-03-17T07:59:53.677Z,1011.65
2023-03-17T08:00:53.698Z,1011.65
2023-03-17T08:01:53.684Z,1011.71
2023-03-17T08:03:06.786Z,1011.81
2023-03-17T08:03:53.717Z,1012.01
2023-03-17T08:04:53.657Z,1011.97
2023-03-17T08:05:53.675Z,1011.89
2023-03-17T08:06:53.660Z,1012.13
2023-03-17T08:07:53.657Z,1012.29
2023-03-17T08:08:53.645Z,1012.32
2023-03-17T08:09:53.694Z,1012.40
2023-03-17T08:10:53.641Z,1012.46
2023-03-17T08:11:53.674Z,1012.41
2023-03-17T08:12:53.636Z,1012.44
2023-03-17T08:13:53.649Z,1012.21
2023-03-17T08:14:53.630Z,1012.32
2023-03-17T08:15:53.673Z,1012.28
2023-03-17T08:16:53.721Z,1012.27
2023-03-17T08:17:53.668Z,1012.24
2023-03-17T08:18:53.643Z,1012.42
2023-03-17T08:19:53.653Z,1012.39
2023-03-17T08:20:53.650Z,1012.64
2023-03-17T08:21:53.659Z,1012.96
2023-03-17T08:22:53.623Z,1012.87
2023-03-17T08:23:53.644Z,1012.86
2023-03-17T08:24:53.629Z,1013.08
2023-03-17T08:25:53.644Z,1013.21
2023-03-17T08:26:53.639Z,1013.20
2023-03-17T08:27:53.642Z,1013.33
2023-03-17T08:28:53.626Z,1013.16
2023-03-17T08:29:53.624Z,1013.12
2023-03-17T08:30:53.699Z,1013.10
2023-03-17T08:31:53.688Z,1012.98
2023-03-17T08:32:53.699Z,1012.54
2023-03-17T08:33:53.692Z,1012.32
2023-03-17T08:34:53.611Z,1012.59
2023-03-17T08:35:53.713Z,1012.31
2023-03-17T08:36:53.616Z,1012.40
2023-03-17T08:37:56.123Z,1012.63
2023-03-17T08:38:53.631Z,1012.30
2023-03-17T08:39:53.621Z,1013.07
2023-03-17T08:40:53.630Z,1012.90
2023-03-17T08:41:53.632Z,1013.02
2023-03-17T08:42:53.623Z,1012.25
2023-03-17T08:43:53.633Z,1012.49
2023-03-17T08:44:53.614Z,1012.73
2023-03-17T08:45:53.649Z,1013.28
2023-03-17T08:46:53.624Z,1013.11
2023-03-17T08:47:53.630Z,1012.81
2023-03-17T08:48:53.614Z,1013.07
2023-03-17T08:49:53.620Z,1012.51
2023-03-17T08:50:53.627Z,1012.92
2023-03-17T08:51:53.616Z,1012.84
2023-03-17T08:52:53.635Z,1013.08
2023-03-17T08:53:53.644Z,1012.76
2023-03-17T08:54:53.616Z,1012.80
2023-03-17T08:55:53.628Z,1012.99
2023-03-17T08:56:53.625Z,1012.27
2023-03-17T08:57:53.627Z,1012.06
2023-03-17T08:58:53.627Z,1012.07
2023-03-17T08:59:53.656Z,1011.97
2023-03-17T09:00:53.625Z,1011.90
2023-03-17T09:01:53.720Z,1011.77
2023-03-17T09:02:53.720Z,1011.67
2023-03-17T09:03:53.633Z,1011.67
2023-03-17T09:04:53.644Z,1011.53
2023-03-17T09:05:53.627Z,1011.56
2023-03-17T09:07:02.876Z,1011.48
2023-03-17T09:07:53.715Z,1011.49
2023-03-17T09:08:53.628Z,1011.39
2023-03-17T09:09:53.682Z,1011.36
2023-03-17T09:10:53.627Z,1011.46
2023-03-17T09:11:53.622Z,1011.36
2023-03-17T09:12:53.622Z,1011.40
2023-03-17T09:13:53.633Z,1011.32
2023-03-17T09:14:53.628Z,1011.27
2023-03-17T09:15:53.655Z,1011.23
2023-03-17T09:16:53.630Z,1011.25
2023-03-17T09:17:53.625Z,1011.17
2023-03-17T09:18:53.626Z,1011.16
2023-03-17T09:19:53.622Z,1011.15
2023-03-17T09:20:53.619Z,1011.12
2023-03-17T09:21:53.621Z,1011.07
2023-03-17T09:22:53.614Z,1011.12
2023-03-17T09:23:53.620Z,1011.26
2023-03-17T09:24:53.614Z,1011.20
2023-03-17T09:25:53.634Z,1011.17
2023-03-17T09:26:53.615Z,1011.24
2023-03-17T09:27:53.621Z,1011.18
2023-03-17T09:28:53.618Z,1011.21
2023-03-17T09:29:53.614Z,1011.21
2023-03-17T09:30:53.723Z,1011.24
2023-03-17T09:31:53.617Z,1011.23
2023-03-17T09:32:53.712Z,1011.20
2023-03-17T09:33:53.619Z,1011.20
2023-03-17T09:34:53.609Z,1011.17
2023-03-17T09:35:53.658Z,1011.17
2023-03-17T09:36:53.618Z,1011.16
2023-03-17T09:37:53.607Z,1011.24
2023-03-17T09:38:53.619Z,1011.24
2023-03-17T09:39:53.604Z,1011.17
2023-03-17T09:40:53.617Z,1011.09
2023-03-17T09:41:53.651Z,1011.24
2023-03-17T09:42:53.640Z,1011.13
2023-03-17T09:43:53.605Z,1011.12
2023-03-17T09:44:53.615Z,1011.17
2023-03-17T09:45:53.606Z,1011.13
2023-03-17T09:46:53.729Z,1011.13
2023-03-17T09:47:53.599Z,1011.12
2023-03-17T09:48:53.604Z,1011.10
2023-03-17T09:49:53.597Z,1011.12
2023-03-17T09:50:53.605Z,1011.18
2023-03-17T09:51:53.603Z,1011.11
2023-03-17T09:52:53.606Z,1011.08
2023-03-17T09:53:53.603Z,1011.12
2023-03-17T09:54:53.604Z,1011.14
2023-03-17T09:55:53.595Z,1011.16
2023-03-17T09:56:53.608Z,1011.15
2023-03-17T09:57:53.619Z,1011.18
2023-03-17T09:58:53.599Z,1011.25
2023-03-17T09:59:53.602Z,1011.16
2023-03-17T10:00:53.613Z,1011.13
2023-03-17T10:01:53.655Z,1011.19
2023-03-17T10:02:53.653Z,1011.15
2023-03-17T10:03:53.595Z,1011.18
2023-03-17T10:04:53.668Z,1011.23
2023-03-17T10:05:53.594Z,1011.25
2023-03-17T10:06:53.593Z,1011.25
2023-03-17T10:07:53.593Z,1011.20
2023-03-17T10:08:53.590Z,1011.18
2023-03-17T10:09:53.588Z,1011.13
2023-03-17T10:10:53.596Z,1011.06
2023-03-17T10:11:53.613Z,1011.00
2023-03-17T10:12:53.607Z,1010.97
2023-03-17T10:13:53.627Z,1010.93
2023-03-17T10:14:53.603Z,1010.91
2023-03-17T10:15:53.634Z,1010.84
2023-03-17T10:16:53.593Z,1010.93
2023-03-17T10:17:53.584Z,1010.89
2023-03-17T10:18:53.594Z,1010.77
2023-03-17T10:19:53.591Z,1010.88
2023-03-17T10:20:53.588Z,1010.81
2023-03-17T10:21:53.589Z,1010.86
2023-03-17T10:22:53.595Z,1010.83
2023-03-17T10:23:53.587Z,1010.84
2023-03-17T10:24:53.589Z,1010.92
2023-03-17T10:25:53.625Z,1010.87
2023-03-17T10:26:53.581Z,1010.93
2023-03-17T10:27:53.579Z,1010.84
2023-03-17T10:28:53.583Z,1010.81
2023-03-17T10:29:53.603Z,1010.86
2023-03-17T10:30:53.581Z,1010.84
2023-03-17T10:31:54.601Z,1010.85
2023-03-17T10:32:53.614Z,1010.81
2023-03-17T10:33:53.588Z,1010.83
2023-03-17T10:34:53.598Z,1010.77
2023-03-17T10:35:53.590Z,1010.76
2023-03-17T10:36:53.597Z,1010.78
2023-03-17T10:38:07.973Z,1010.79
2023-03-17T10:38:53.581Z,1010.81
2023-03-17T10:39:53.584Z,1010.79
2023-03-17T10:40:53.586Z,1010.81
2023-03-17T10:41:53.588Z,1010.81
2023-03-17T10:42:53.583Z,1010.78
2023-03-17T10:43:53.596Z,1010.72
2023-03-17T10:44:53.581Z,1010.75
2023-03-17T10:45:53.600Z,1010.74
2023-03-17T10:46:53.618Z,1010.70
2023-03-17T10:47:53.578Z,1010.68
2023-03-17T10:48:53.593Z,1010.68
2023-03-17T10:49:53.614Z,1010.69
2023-03-17T10:50:54.427Z,1010.67
2023-03-17T10:51:53.578Z,1010.73
2023-03-17T10:52:53.579Z,1010.72
2023-03-17T10:53:53.573Z,1010.74
2023-03-17T10:54:53.581Z,1010.79
2023-03-17T10:55:53.577Z,1010.65
2023-03-17T10:56:53.579Z,1010.64
2023-03-17T10:57:53.574Z,1010.64
2023-03-17T10:58:53.607Z,1010.60
2023-03-17T10:59:53.589Z,1010.54
2023-03-17T11:00:53.679Z,1010.46
2023-03-17T11:01:53.596Z,1010.49
2023-03-17T11:02:53.627Z,1010.51
2023-03-17T11:03:53.664Z,1010.43
2023-03-17T11:04:53.578Z,1010.42
2023-03-17T11:05:53.587Z,1010.55
2023-03-17T11:06:53.584Z,1010.63
2023-03-17T11:07:53.578Z,1010.42
2023-03-17T11:08:53.600Z,1010.43
2023-03-17T11:09:53.579Z,1010.47
2023-03-17T11:10:53.584Z,1010.37
2023-03-17T11:11:53.581Z,1010.42
2023-03-17T11:12:53.580Z,1010.40
2023-03-17T11:13:53.580Z,1010.33
2023-03-17T11:14:53.589Z,1010.36
2023-03-17T11:15:53.578Z,1010.29
2023-03-17T11:16:53.576Z,1010.37
2023-03-17T11:17:53.606Z,1010.35
2023-03-17T11:18:53.583Z,1010.42
2023-03-17T11:19:53.580Z,1010.38
2023-03-17T11:20:53.578Z,1010.36
2023-03-17T11:21:53.576Z,1010.30
2023-03-17T11:22:53.584Z,1010.26
2023-03-17T11:23:53.580Z,1010.28
2023-03-17T11:24:53.584Z,1010.30
2023-03-17T11:25:53.572Z,1010.30
2023-03-17T11:26:53.581Z,1010.28
2023-03-17T11:27:53.575Z,1010.28
2023-03-17T11:28:53.579Z,1010.26
2023-03-17T11:29:53.576Z,1010.28
2023-03-17T11:30:53.579Z,1010.28
2023-03-17T11:31:53.630Z,1010.30
2023-03-17T11:32:53.652Z,1010.24
2023-03-17T11:33:53.602Z,1010.30
2023-03-17T11:34:53.579Z,1010.28
2023-03-17T11:35:53.603Z,1010.23
2023-03-17T11:36:55.388Z,1010.17
2023-03-17T11:37:53.571Z,1010.18
2023-03-17T11:38:53.580Z,1010.23
2023-03-17T11:39:53.576Z,1010.23
2023-03-17T11:40:53.580Z,1010.20
2023-03-17T11:41:53.577Z,1010.18
2023-03-17T11:42:54.806Z,1010.20
2023-03-17T11:43:53.573Z,1010.24
2023-03-17T11:44:53.575Z,1010.12
2023-03-17T11:45:53.622Z,1010.18
2023-03-17T11:46:53.586Z,1010.15
2023-03-17T11:47:53.581Z,1010.11
2023-03-17T11:48:53.581Z,1010.14
2023-03-17T11:49:53.599Z,1010.14
2023-03-17T11:50:53.588Z,1010.10
2023-03-17T11:51:53.576Z,1010.11
2023-03-17T11:52:53.581Z,1010.11
2023-03-17T11:53:53.576Z,1010.04
2023-03-17T11:54:55.971Z,1010.11
2023-03-17T11:55:53.574Z,1010.14
2023-03-17T11:56:53.576Z,1010.07
2023-03-17T11:57:53.576Z,1010.09
2023-03-17T11:58:53.583Z,1010.07
2023-03-17T11:59:53.568Z,1010.02
2023-03-17T12:00:53.575Z,1009.97
2023-03-17T12:01:53.576Z,1010.05
2023-03-17T12:02:53.573Z,1010.00
2023-03-17T12:03:53.739Z,1009.98
2023-03-17T12:04:53.575Z,1009.99
2023-03-17T12:05:53.591Z,1010.00